createdAt,value
2019-02-15T00:01:25.845Z,149398.09
2019-02-15T00:03:56.742Z,149382.84
2019-02-15T00:06:27.324Z,149390.47
2019-02-15T00:08:58.783Z,149381.61
2019-02-15T00:11:29.378Z,149393.02
2019-02-15T00:14:00.442Z,149387.91
2019-02-15T00:16:31.031Z,149393.02
2019-02-15T00:19:23.388Z,149373.98
2019-02-15T00:21:54.547Z,149390.47
2019-02-15T00:24:25.134Z,149376.50
2019-02-15T00:26:55.905Z,149349.89
2019-02-15T00:29:26.478Z,149377.78
2019-02-15T00:31:57.255Z,149357.52
2019-02-15T00:34:27.752Z,149349.89
2019-02-15T00:36:58.724Z,149357.52
2019-02-15T00:39:29.490Z,149360.02
2019-02-15T00:42:00.045Z,149334.69
2019-02-15T00:44:30.562Z,149329.64
2019-02-15T00:47:13.961Z,149314.39
2019-02-15T00:50:06.358Z,149302.98
2019-02-15T00:52:51.103Z,149308.05
2019-02-15T00:55:30.510Z,149291.58
2019-02-15T00:58:28.900Z,149304.27
2019-02-15T01:01:16.463Z,149311.87
2019-02-15T01:03:51.350Z,149304.27
2019-02-15T01:06:39.224Z,149316.95
2019-02-15T01:09:16.771Z,149311.87
2019-02-15T01:12:00.107Z,149314.39
2019-02-15T01:14:32.211Z,149320.73
2019-02-15T01:17:03.092Z,149309.33
2019-02-15T01:19:33.975Z,149296.64
2019-02-15T01:22:04.740Z,149319.45
2019-02-15T01:24:40.955Z,149314.39
2019-02-15T01:27:33.576Z,149297.92
2019-02-15T01:30:33.123Z,149296.64
2019-02-15T01:33:30.260Z,149304.27
2019-02-15T01:36:15.219Z,149296.64
2019-02-15T01:39:05.452Z,149314.39
2019-02-15T01:42:03.651Z,149285.23
2019-02-15T01:44:40.202Z,149310.61
2019-02-15T01:47:19.690Z,149290.30
2019-02-15T01:49:50.638Z,149294.13
2019-02-15T01:52:29.510Z,149285.23
2019-02-15T01:55:52.117Z,149302.98
2019-02-15T01:58:26.762Z,149271.33
2019-02-15T02:00:58.488Z,149287.80
2019-02-15T02:03:30.382Z,149285.23
2019-02-15T02:06:00.910Z,149294.13
2019-02-15T02:08:31.938Z,149291.58
2019-02-15T02:11:02.624Z,149276.39
2019-02-15T02:13:35.022Z,149314.39
2019-02-15T02:16:06.948Z,149301.70
2019-02-15T02:18:37.978Z,149327.08
2019-02-15T02:21:08.859Z,149306.81
2019-02-15T02:23:39.636Z,149301.70
2019-02-15T02:26:10.167Z,149284.00
2019-02-15T02:28:44.712Z,149289.08
2019-02-15T02:31:15.479Z,149273.83
2019-02-15T02:33:45.977Z,149261.19
2019-02-15T02:36:16.489Z,149256.09
2019-02-15T02:38:47.101Z,149240.91
2019-02-15T02:41:17.575Z,149221.88
2019-02-15T02:43:48.112Z,149221.88
2019-02-15T02:46:18.632Z,149207.97
2019-02-15T02:48:49.158Z,149230.77
2019-02-15T02:51:19.979Z,149239.63
2019-02-15T02:53:50.812Z,149264.98
2019-02-15T02:56:21.619Z,149264.98
2019-02-15T02:58:52.545Z,149253.58
2019-02-15T03:01:23.287Z,149248.52
2019-02-15T03:03:54.069Z,149253.58
2019-02-15T03:06:24.626Z,149244.69
2019-02-15T03:08:55.131Z,149245.97
2019-02-15T03:11:25.765Z,149254.86
2019-02-15T03:13:56.615Z,149273.83
2019-02-15T03:16:27.502Z,149282.73
2019-02-15T03:18:58.022Z,149284.00
2019-02-15T03:21:28.611Z,149286.52
2019-02-15T03:23:59.446Z,149295.41
2019-02-15T03:26:29.980Z,149278.91
2019-02-15T03:29:01.196Z,149284.00
2019-02-15T03:31:32.270Z,149287.80
2019-02-15T03:34:02.804Z,149301.70
2019-02-15T03:36:55.078Z,149296.64
2019-02-15T03:39:33.568Z,149313.12
2019-02-15T03:42:04.275Z,149316.95
2019-02-15T03:44:34.817Z,149294.13
2019-02-15T03:47:05.606Z,149295.41
2019-02-15T03:49:36.475Z,149301.70
2019-02-15T03:52:07.281Z,149271.33
2019-02-15T03:54:37.797Z,149271.33
2019-02-15T03:57:08.451Z,149287.80
2019-02-15T03:59:39.265Z,149261.19
2019-02-15T04:02:09.775Z,149245.97
2019-02-15T04:04:40.322Z,149259.92
2019-02-15T04:07:10.878Z,149256.09
2019-02-15T04:09:41.837Z,149245.97
2019-02-15T04:12:12.398Z,149234.56
2019-02-15T04:14:43.199Z,149243.45
2019-02-15T04:17:13.772Z,149220.66
2019-02-15T04:19:44.312Z,149230.77
2019-02-15T04:22:15.079Z,149228.22
2019-02-15T04:24:45.609Z,149238.39
2019-02-15T04:27:16.224Z,149234.56
2019-02-15T04:29:46.790Z,149239.63
2019-02-15T04:32:17.313Z,149233.28
2019-02-15T04:34:48.135Z,149207.97
2019-02-15T04:37:19.010Z,149221.88
2019-02-15T04:39:49.532Z,149209.25
2019-02-15T04:42:20.340Z,149210.47
2019-02-15T04:44:51.133Z,149204.13
2019-02-15T04:47:21.661Z,149205.41
2019-02-15T04:49:52.262Z,149211.75
2019-02-15T04:52:23.095Z,149219.38
2019-02-15T04:54:53.573Z,149207.97
2019-02-15T04:57:24.399Z,149190.22
2019-02-15T04:59:55.224Z,149185.16
2019-02-15T05:02:26.017Z,149191.50
2019-02-15T05:04:56.565Z,149185.16
2019-02-15T05:07:27.082Z,149190.22
2019-02-15T05:09:57.638Z,149172.48
2019-02-15T05:12:28.493Z,149169.94
2019-02-15T05:14:59.720Z,149159.81
2019-02-15T05:17:30.288Z,149156.03
2019-02-15T05:20:01.219Z,149152.23
2019-02-15T05:22:31.806Z,149158.53
2019-02-15T05:25:02.366Z,149161.08
2019-02-15T05:27:33.575Z,149130.66
2019-02-15T05:30:04.128Z,149119.27
2019-02-15T05:32:34.730Z,149139.56
2019-02-15T05:35:05.601Z,149131.94
2019-02-15T05:37:36.188Z,149145.91
2019-02-15T05:40:07.274Z,149124.33
2019-02-15T05:42:37.874Z,149109.14
2019-02-15T05:45:08.445Z,149153.47
2019-02-15T05:47:38.982Z,149129.39
2019-02-15T05:50:09.908Z,149124.33
2019-02-15T05:52:40.454Z,149152.23
2019-02-15T05:55:11.254Z,149148.41
2019-02-15T05:57:41.884Z,149194.00
2019-02-15T06:00:13.212Z,149187.67
2019-02-15T06:02:43.709Z,149187.67
2019-02-15T06:05:15.273Z,149194.00
2019-02-15T06:07:45.853Z,149173.77
2019-02-15T06:10:16.693Z,149190.22
2019-02-15T06:12:47.233Z,149191.50
2019-02-15T06:15:18.041Z,149210.47
2019-02-15T06:17:48.638Z,149201.62
2019-02-15T06:20:19.141Z,149200.34
2019-02-15T06:22:49.642Z,149210.47
2019-02-15T06:25:20.202Z,149221.88
2019-02-15T06:27:51.051Z,149213.03
2019-02-15T06:30:22.186Z,149202.91
2019-02-15T06:32:53.039Z,149220.66
2019-02-15T06:35:23.577Z,149218.09
2019-02-15T06:37:54.102Z,149240.91
2019-02-15T06:40:24.589Z,149243.45
2019-02-15T06:42:55.364Z,149230.77
2019-02-15T06:45:25.895Z,149244.69
2019-02-15T06:47:56.496Z,149242.17
2019-02-15T06:50:27.350Z,149238.39
2019-02-15T06:52:58.147Z,149235.83
2019-02-15T06:55:28.892Z,149254.86
2019-02-15T06:57:59.822Z,149245.97
2019-02-15T07:00:45.002Z,149237.11
2019-02-15T07:03:37.494Z,149243.45
2019-02-15T07:06:07.992Z,149239.63
2019-02-15T07:08:38.765Z,149253.58
2019-02-15T07:11:09.426Z,149253.58
2019-02-15T07:13:40.469Z,149249.80
2019-02-15T07:16:10.984Z,149270.05
2019-02-15T07:18:41.548Z,149282.73
2019-02-15T07:21:12.318Z,149327.08
2019-02-15T07:23:43.114Z,149366.36
2019-02-15T07:26:13.936Z,149400.59
2019-02-15T07:28:45.196Z,149438.66
2019-02-15T07:31:15.749Z,149475.41
2019-02-15T07:33:46.698Z,149527.41
2019-02-15T07:36:17.513Z,149512.20
2019-02-15T07:38:48.128Z,149617.56
2019-02-15T07:41:18.643Z,149649.25
2019-02-15T07:43:49.175Z,149684.81
2019-02-15T07:46:19.673Z,149729.22
2019-02-15T07:48:50.492Z,149753.34
2019-02-15T07:51:21.623Z,149762.20
2019-02-15T07:53:52.848Z,149819.33
2019-02-15T07:56:24.244Z,149905.67
2019-02-15T07:58:54.791Z,149903.16
2019-02-15T08:01:25.644Z,149965.39
2019-02-15T08:03:56.459Z,150027.69
2019-02-15T08:06:26.977Z,150061.98
2019-02-15T08:08:57.480Z,150042.97
2019-02-15T08:11:28.296Z,149913.31
2019-02-15T08:13:59.144Z,150095.06
2019-02-15T08:16:29.951Z,150135.69
2019-02-15T08:19:00.514Z,150223.41
2019-02-15T08:21:31.591Z,150213.25
2019-02-15T08:24:03.236Z,150184.00
2019-02-15T08:26:34.020Z,150175.13
2019-02-15T08:29:04.557Z,150259.02
2019-02-15T08:31:35.086Z,150342.98
2019-02-15T08:34:06.307Z,150367.11
2019-02-15T08:36:36.868Z,150233.56
2019-02-15T08:39:08.572Z,150129.38
2019-02-15T08:41:39.107Z,150269.19
2019-02-15T08:44:09.644Z,150276.83
2019-02-15T08:46:40.178Z,150284.47
2019-02-15T08:49:10.718Z,150314.95
2019-02-15T08:51:41.224Z,150395.08
2019-02-15T08:54:11.729Z,150424.39
2019-02-15T08:56:42.337Z,150503.31
2019-02-15T08:59:12.838Z,150559.30
2019-02-15T09:01:43.932Z,150706.95
2019-02-15T09:04:17.303Z,150617.86
2019-02-15T09:06:48.047Z,150686.61
2019-02-15T09:09:18.558Z,150728.64
2019-02-15T09:11:49.096Z,150681.52
2019-02-15T09:14:19.648Z,150680.23
2019-02-15T09:16:50.150Z,150768.16
2019-02-15T09:19:20.742Z,150802.56
2019-02-15T09:21:51.322Z,150798.70
2019-02-15T09:24:21.859Z,150915.92
2019-02-15T09:26:52.419Z,150805.08
2019-02-15T09:29:22.913Z,151085.50
2019-02-15T09:31:53.556Z,150966.88
2019-02-15T09:34:24.409Z,151061.22
2019-02-15T09:36:55.220Z,151205.36
2019-02-15T09:39:25.717Z,151010.25
2019-02-15T09:41:56.844Z,151128.83
2019-02-15T09:44:27.602Z,151158.16
2019-02-15T09:46:58.123Z,151215.55
2019-02-15T09:49:28.665Z,151113.55
2019-02-15T09:51:59.199Z,151206.64
2019-02-15T09:54:29.696Z,151163.25
2019-02-15T09:57:00.259Z,151278.09
2019-02-15T09:59:30.961Z,151350.80
2019-02-15T10:02:01.471Z,151556.33
2019-02-15T10:04:32.267Z,151581.88
2019-02-15T10:07:02.794Z,151615.06
2019-02-15T10:09:33.320Z,151730.06
2019-02-15T10:12:03.893Z,151800.34
2019-02-15T10:14:34.730Z,151852.73
2019-02-15T10:17:05.484Z,151721.14
2019-02-15T10:19:36.574Z,151898.80
2019-02-15T10:22:07.249Z,151877.03
2019-02-15T10:24:38.018Z,151544.83
2019-02-15T10:27:08.557Z,151730.06
2019-02-15T10:29:39.074Z,151603.58
2019-02-15T10:32:10.412Z,151579.31
2019-02-15T10:34:41.044Z,151552.50
2019-02-15T10:37:11.796Z,151689.19
2019-02-15T10:39:42.891Z,151578.06
2019-02-15T10:42:13.712Z,151557.61
2019-02-15T10:44:44.296Z,151473.38
2019-02-15T10:47:24.442Z,151726.25
2019-02-15T10:49:47.333Z,151579.31
2019-02-15T10:52:18.086Z,151546.13
2019-02-15T10:54:48.583Z,151649.59
2019-02-15T10:57:19.130Z,151533.34
2019-02-15T10:59:49.962Z,151523.14
2019-02-15T11:02:20.981Z,151638.11
2019-02-15T11:04:51.665Z,151786.31
2019-02-15T11:07:22.159Z,151663.66
2019-02-15T11:09:52.694Z,151838.70
2019-02-15T11:12:23.241Z,151860.42
2019-02-15T11:14:54.083Z,151710.94
2019-02-15T11:17:24.975Z,151726.25
2019-02-15T11:19:55.473Z,151666.19
2019-02-15T11:22:26.238Z,151829.73
2019-02-15T11:24:56.895Z,151813.13
2019-02-15T11:27:27.418Z,151939.69
2019-02-15T11:29:57.902Z,151685.37
2019-02-15T11:32:28.443Z,151910.30
2019-02-15T11:34:59.021Z,151992.11
2019-02-15T11:37:29.523Z,151856.59
2019-02-15T11:40:00.146Z,151815.70
2019-02-15T11:42:30.819Z,151998.50
2019-02-15T11:45:01.828Z,151926.91
2019-02-15T11:47:32.442Z,151958.89
2019-02-15T11:50:03.351Z,151948.67
2019-02-15T11:52:33.840Z,152061.16
2019-02-15T11:55:05.055Z,152143.06
2019-02-15T11:57:35.613Z,151937.17
2019-02-15T12:00:13.872Z,152140.53
2019-02-15T12:02:39.531Z,152057.33
2019-02-15T12:05:10.523Z,152346.50
2019-02-15T12:07:41.358Z,152480.97
2019-02-15T12:10:12.120Z,152411.84
2019-02-15T12:12:43.076Z,152434.88
2019-02-15T12:15:13.713Z,152423.36
2019-02-15T12:17:44.536Z,152657.72
2019-02-15T12:20:15.180Z,152525.77
2019-02-15T12:22:45.800Z,152546.28
2019-02-15T12:25:16.507Z,152423.36
2019-02-15T12:27:47.414Z,152319.64
2019-02-15T12:30:19.619Z,152341.39
2019-02-15T12:32:50.424Z,152154.56
2019-02-15T12:35:21.060Z,152182.70
2019-02-15T12:37:51.645Z,152322.17
2019-02-15T12:40:22.183Z,152332.41
2019-02-15T12:42:53.050Z,152543.70
2019-02-15T12:45:24.286Z,152559.06
2019-02-15T12:47:54.850Z,152553.94
2019-02-15T12:50:25.396Z,152137.95
2019-02-15T12:52:55.977Z,152172.48
2019-02-15T12:55:26.592Z,152254.38
2019-02-15T12:57:57.178Z,152288.92
2019-02-15T13:00:28.056Z,152409.25
2019-02-15T13:02:58.633Z,152326.05
2019-02-15T13:05:29.216Z,152292.73
2019-02-15T13:08:00.130Z,152246.67
2019-02-15T13:10:32.455Z,152295.31
2019-02-15T13:13:03.298Z,152207.02
2019-02-15T13:15:34.425Z,152198.09
2019-02-15T13:18:05.175Z,152320.88
2019-02-15T13:20:35.791Z,152185.28
2019-02-15T13:23:06.366Z,152402.86
2019-02-15T13:25:37.293Z,152318.34
2019-02-15T13:28:07.899Z,152349.08
2019-02-15T13:30:38.761Z,152395.20
2019-02-15T13:33:09.702Z,152267.17
2019-02-15T13:35:40.310Z,152232.63
2019-02-15T13:38:11.173Z,152332.41
2019-02-15T13:40:41.749Z,152328.58
2019-02-15T13:43:13.858Z,152361.89
2019-02-15T13:45:45.117Z,152145.64
2019-02-15T13:48:16.989Z,152363.19
2019-02-15T13:50:47.973Z,152367.00
2019-02-15T13:53:19.633Z,152407.97
2019-02-15T13:55:53.325Z,152326.05
2019-02-15T13:58:25.064Z,152313.23
2019-02-15T14:00:58.098Z,152422.06
2019-02-15T14:03:29.882Z,152390.05
2019-02-15T14:06:01.078Z,152451.52
2019-02-15T14:08:32.925Z,152315.78
2019-02-15T14:11:07.369Z,152299.14
2019-02-15T14:13:40.681Z,152271.00
2019-02-15T14:16:12.490Z,152388.80
2019-02-15T14:18:44.218Z,152340.09
2019-02-15T14:21:15.231Z,152185.28
2019-02-15T14:23:45.854Z,152268.42
2019-02-15T14:26:16.783Z,152185.28
2019-02-15T14:28:49.468Z,152195.52
2019-02-15T14:31:20.306Z,152232.63
2019-02-15T14:33:50.921Z,152100.80
2019-02-15T14:36:21.856Z,152178.89
2019-02-15T14:38:52.423Z,152091.86
2019-02-15T14:41:23.303Z,152127.72
2019-02-15T14:43:54.318Z,152123.86
2019-02-15T14:46:25.094Z,152180.17
2019-02-15T14:48:55.736Z,152126.44
2019-02-15T14:51:26.648Z,152187.81
2019-02-15T14:53:57.522Z,152144.34
2019-02-15T14:56:28.094Z,152169.91
2019-02-15T14:58:58.727Z,152085.47
2019-02-15T15:01:29.289Z,152070.12
2019-02-15T15:04:00.137Z,152122.63
2019-02-15T15:06:31.089Z,152109.77
2019-02-15T15:09:01.915Z,152150.75
2019-02-15T15:11:32.444Z,152184.00
2019-02-15T15:14:03.128Z,152132.84
2019-02-15T15:16:34.187Z,151970.39
2019-02-15T15:19:04.790Z,151987.00
2019-02-15T15:21:35.580Z,151940.98
2019-02-15T15:24:06.585Z,152007.44
2019-02-15T15:26:37.210Z,151983.19
2019-02-15T15:29:07.842Z,151912.88
2019-02-15T15:31:38.676Z,151912.88
2019-02-15T15:34:09.442Z,151934.59
2019-02-15T15:36:40.349Z,151903.91
2019-02-15T15:39:11.291Z,151882.19
2019-02-15T15:41:42.149Z,151866.81
2019-02-15T15:44:15.083Z,151894.97
2019-02-15T15:46:45.366Z,151852.73
2019-02-15T15:49:16.924Z,151842.53
2019-02-15T15:51:47.638Z,151843.81
2019-02-15T15:54:18.469Z,151822.05
2019-02-15T15:56:49.137Z,151847.63
2019-02-15T15:59:19.698Z,151806.73
2019-02-15T16:01:50.283Z,151819.53
2019-02-15T16:04:20.941Z,151799.05
2019-02-15T16:06:51.531Z,151800.34
2019-02-15T16:09:22.115Z,151783.73
2019-02-15T16:11:52.723Z,151768.42
2019-02-15T16:14:23.296Z,151779.92
2019-02-15T16:16:54.214Z,151755.63
2019-02-15T16:19:25.069Z,151718.56
2019-02-15T16:21:55.909Z,151726.25
2019-02-15T16:24:26.799Z,151719.86
2019-02-15T16:26:57.442Z,151708.36
2019-02-15T16:29:27.998Z,151687.94
2019-02-15T16:31:59.199Z,151668.77
2019-02-15T16:34:29.766Z,151664.95
2019-02-15T16:37:00.696Z,151653.47
2019-02-15T16:39:31.370Z,151650.89
2019-02-15T16:42:01.991Z,151635.58
2019-02-15T16:44:32.629Z,151612.55
2019-02-15T16:47:03.483Z,151597.19
2019-02-15T16:49:34.765Z,151569.09
2019-02-15T16:52:05.329Z,151548.69
2019-02-15T16:54:36.141Z,151564.00
2019-02-15T16:57:06.921Z,151538.44
2019-02-15T16:59:37.544Z,151509.13
2019-02-15T17:02:08.682Z,151502.73
2019-02-15T17:04:39.596Z,151484.86
2019-02-15T17:07:10.193Z,151482.28
2019-02-15T17:09:40.741Z,151465.70
2019-02-15T17:12:11.416Z,151465.70
2019-02-15T17:14:42.315Z,151440.16
2019-02-15T17:17:13.287Z,151408.27
2019-02-15T17:19:44.168Z,151421.03
2019-02-15T17:22:16.869Z,151387.88
2019-02-15T17:24:47.428Z,151371.25
2019-02-15T17:27:18.027Z,151336.75
2019-02-15T17:29:48.879Z,151344.41
2019-02-15T17:32:19.464Z,151330.34
2019-02-15T17:34:50.034Z,151316.34
2019-02-15T17:37:20.898Z,151298.48
2019-02-15T17:39:51.915Z,151303.58
2019-02-15T17:42:22.781Z,151293.39
2019-02-15T17:44:53.619Z,151281.91
2019-02-15T17:47:24.288Z,151252.56
2019-02-15T17:49:54.868Z,151229.61
2019-02-15T17:52:25.430Z,151233.41
2019-02-15T17:54:56.928Z,151229.61
2019-02-15T17:57:27.749Z,151206.64
2019-02-15T17:59:58.363Z,151182.41
2019-02-15T18:02:28.954Z,151173.50
2019-02-15T18:04:59.615Z,151165.84
2019-02-15T18:07:30.286Z,151145.41
2019-02-15T18:10:01.166Z,151132.69
2019-02-15T18:12:31.690Z,151104.66
2019-02-15T18:15:02.624Z,151096.98
2019-02-15T18:17:33.206Z,151076.56
2019-02-15T18:20:04.043Z,151080.41
2019-02-15T18:22:34.814Z,151058.66
2019-02-15T18:25:05.519Z,151053.56
2019-02-15T18:27:35.998Z,151045.94
2019-02-15T18:30:08.543Z,151035.70
2019-02-15T18:32:39.142Z,151007.67
2019-02-15T18:35:09.643Z,151000.06
2019-02-15T18:37:40.139Z,150989.83
2019-02-15T18:40:10.997Z,150996.20
2019-02-15T18:42:41.485Z,150969.45
2019-02-15T18:45:13.121Z,150968.17
2019-02-15T18:47:43.683Z,150961.80
2019-02-15T18:50:14.211Z,150935.05
2019-02-15T18:52:44.724Z,150922.30
2019-02-15T18:55:15.238Z,150931.25
2019-02-15T18:57:45.748Z,150931.25
2019-02-15T19:00:16.798Z,150918.50
2019-02-15T19:02:47.533Z,150885.33
2019-02-15T19:05:18.062Z,150909.55
2019-02-15T19:07:48.856Z,150895.56
2019-02-15T19:10:19.767Z,150885.33
2019-02-15T19:12:51.977Z,150872.63
2019-02-15T19:15:22.492Z,150867.53
2019-02-15T19:17:53.370Z,150849.69
2019-02-15T19:20:23.936Z,150845.84
2019-02-15T19:22:54.468Z,150839.47
2019-02-15T19:25:25.231Z,150829.28
2019-02-15T19:27:56.127Z,150826.77
2019-02-15T19:30:28.132Z,150803.84
2019-02-15T19:32:58.951Z,150788.53
2019-02-15T19:35:29.454Z,150786.00
2019-02-15T19:38:00.508Z,150769.45
2019-02-15T19:40:31.112Z,150757.98
2019-02-15T19:43:02.070Z,150732.44
2019-02-15T19:45:32.588Z,150719.70
2019-02-15T19:48:03.425Z,150712.09
2019-02-15T19:50:34.186Z,150713.33
2019-02-15T19:53:04.946Z,150722.27
2019-02-15T19:55:35.761Z,150703.16
2019-02-15T19:58:06.314Z,150700.58
2019-02-15T20:00:37.128Z,150706.95
2019-02-15T20:03:07.964Z,150686.61
2019-02-15T20:05:38.759Z,150686.61
2019-02-15T20:08:27.030Z,150659.89
2019-02-15T20:10:57.569Z,150656.03
2019-02-15T20:13:28.092Z,150658.61
2019-02-15T20:15:58.651Z,150642.06
2019-02-15T20:18:29.348Z,150628.03
2019-02-15T20:21:00.086Z,150626.75
2019-02-15T20:23:31.078Z,150610.20
2019-02-15T20:26:02.020Z,150611.48
2019-02-15T20:28:33.106Z,150626.75
2019-02-15T20:31:03.915Z,150610.20
2019-02-15T20:33:34.585Z,150597.47
2019-02-15T20:36:05.476Z,150583.50
2019-02-15T20:38:36.105Z,150564.38
2019-02-15T20:41:06.751Z,150574.56
2019-02-15T20:43:37.777Z,150556.73
2019-02-15T20:46:08.434Z,150527.50
2019-02-15T20:48:39.089Z,150508.41
2019-02-15T20:51:09.686Z,150495.66
2019-02-15T20:53:40.312Z,150503.31
2019-02-15T20:56:11.710Z,150485.50
2019-02-15T20:58:42.562Z,150465.11
2019-02-15T21:01:13.683Z,150461.31
2019-02-15T21:03:51.617Z,150447.30
2019-02-15T21:06:22.401Z,150462.59
2019-02-15T21:08:54.716Z,150444.78
2019-02-15T21:11:25.354Z,150448.58
2019-02-15T21:13:56.199Z,150430.77
2019-02-15T21:16:30.096Z,150433.33
2019-02-15T21:19:00.742Z,150412.94
2019-02-15T21:21:31.436Z,150425.69
2019-02-15T21:24:02.178Z,150396.38
2019-02-15T21:26:32.698Z,150383.64
2019-02-15T21:29:03.638Z,150395.08
2019-02-15T21:31:34.961Z,150382.41
2019-02-15T21:34:06.006Z,150360.75
2019-02-15T21:36:36.610Z,150353.14
2019-02-15T21:39:09.692Z,150340.41
2019-02-15T21:41:40.736Z,150340.41
2019-02-15T21:44:11.696Z,150317.53
2019-02-15T21:46:42.539Z,150307.36
2019-02-15T21:49:13.349Z,150304.80
2019-02-15T21:51:44.249Z,150304.80
2019-02-15T21:54:14.870Z,150306.08
2019-02-15T21:56:45.772Z,150290.83
2019-02-15T21:59:16.728Z,150275.55
2019-02-15T22:01:48.573Z,150261.58
2019-02-15T22:04:19.245Z,150261.58
2019-02-15T22:06:49.847Z,150269.19
2019-02-15T22:09:20.696Z,150247.58
2019-02-15T22:11:51.398Z,150246.30
2019-02-15T22:14:22.124Z,150259.02
2019-02-15T22:16:52.839Z,150236.13
2019-02-15T22:19:23.522Z,150218.33
2019-02-15T22:21:54.475Z,150219.61
2019-02-15T22:24:25.490Z,150218.33
2019-02-15T22:26:56.248Z,150210.69
2019-02-15T22:29:26.856Z,150220.89
2019-02-15T22:31:57.806Z,150208.17
2019-02-15T22:34:28.432Z,150195.44
2019-02-15T22:36:59.251Z,150176.36
2019-02-15T22:39:30.258Z,150171.28
2019-02-15T22:42:01.307Z,150161.12
2019-02-15T22:44:32.142Z,150163.69
2019-02-15T22:47:03.095Z,150162.41
2019-02-15T22:49:43.114Z,150172.56
2019-02-15T22:52:06.113Z,150161.12
2019-02-15T22:54:36.915Z,150142.05
2019-02-15T22:57:07.808Z,150158.61
2019-02-15T22:59:38.685Z,150138.25
2019-02-15T23:02:11.372Z,150129.38
2019-02-15T23:04:42.542Z,150124.25
2019-02-15T23:07:13.126Z,150134.45
2019-02-15T23:09:43.835Z,150119.17
2019-02-15T23:12:14.523Z,150111.58
2019-02-15T23:14:45.162Z,150120.45
2019-02-15T23:17:16.103Z,150114.09
2019-02-15T23:19:46.839Z,150098.86
2019-02-15T23:22:17.789Z,150096.30
2019-02-15T23:24:48.772Z,150088.70
2019-02-15T23:27:19.316Z,150095.06
2019-02-15T23:29:50.262Z,150089.94
2019-02-15T23:32:21.172Z,150079.78
2019-02-15T23:34:52.968Z,150087.42
2019-02-15T23:37:23.827Z,150065.83
2019-02-15T23:39:54.430Z,150040.41
2019-02-15T23:42:25.143Z,150040.41
2019-02-15T23:44:56.116Z,150048.03
2019-02-15T23:47:27.007Z,150037.84
2019-02-15T23:49:57.588Z,150026.41
2019-02-15T23:52:28.172Z,150026.41
2019-02-15T23:54:58.872Z,150021.33
2019-02-15T23:57:29.850Z,150011.17
